createdAt,value
2022-11-27T00:01:49.408Z,-143.11
2022-11-27T00:04:19.576Z,1.20
2022-11-27T00:06:47.711Z,0.92
2022-11-27T00:09:16.878Z,1.03
2022-11-27T00:11:45.387Z,1.11
2022-11-27T00:14:14.181Z,1.23
2022-11-27T00:16:42.564Z,0.60
2022-11-27T00:19:10.757Z,0.63
2022-11-27T00:21:40.103Z,0.56
2022-11-27T00:24:08.805Z,0.42
2022-11-27T00:26:39.344Z,0.16
2022-11-27T00:29:07.873Z,0.05
2022-11-27T00:31:37.578Z,0.00
2022-11-27T00:34:06.975Z,0.22
2022-11-27T00:36:37.647Z,0.31
2022-11-27T00:39:07.117Z,0.61
2022-11-27T00:41:35.466Z,0.26
2022-11-27T00:44:03.655Z,0.12
2022-11-27T00:46:34.271Z,0.13
2022-11-27T00:49:06.143Z,1.01
2022-11-27T00:51:34.668Z,1.01
2022-11-27T00:54:02.726Z,-143.11
2022-11-27T00:56:33.252Z,-143.11
2022-11-27T00:59:01.686Z,1.01
2022-11-27T01:01:32.307Z,1.01
2022-11-27T01:04:01.002Z,1.01
2022-11-27T01:06:31.536Z,1.01
2022-11-27T01:09:02.409Z,1.01
2022-11-27T01:11:33.371Z,1.14
2022-11-27T01:14:02.710Z,0.89
2022-11-27T01:16:31.529Z,0.52
2022-11-27T01:19:00.866Z,0.45
2022-11-27T01:21:29.745Z,0.41
2022-11-27T01:23:57.990Z,0.66
2022-11-27T01:26:26.123Z,0.64
2022-11-27T01:28:56.180Z,0.77
2022-11-27T01:31:25.371Z,0.85
2022-11-27T01:33:53.938Z,0.90
2022-11-27T01:36:22.310Z,1.03
2022-11-27T01:38:52.897Z,0.86
2022-11-27T01:41:21.844Z,1.18
2022-11-27T01:43:53.857Z,1.36
2022-11-27T01:46:29.572Z,1.18
2022-11-27T01:49:04.149Z,0.33
2022-11-27T01:51:32.676Z,0.33
2022-11-27T01:54:00.835Z,0.18
2022-11-27T01:56:29.193Z,0.34
2022-11-27T01:58:59.142Z,0.24
2022-11-27T02:01:28.620Z,0.54
2022-11-27T02:04:00.054Z,0.55
2022-11-27T02:06:28.388Z,0.60
2022-11-27T02:08:57.170Z,0.59
2022-11-27T02:11:31.728Z,-143.11
2022-11-27T02:14:04.227Z,-143.11
2022-11-27T02:16:37.761Z,-143.11
2022-11-27T02:19:08.803Z,-143.11
2022-11-27T02:21:40.057Z,-143.11
2022-11-27T02:24:22.958Z,-143.11
2022-11-27T02:27:09.183Z,-143.11
2022-11-27T02:29:40.692Z,-143.11
2022-11-27T02:32:11.329Z,-143.11
2022-11-27T02:34:43.150Z,-143.11
2022-11-27T02:37:14.724Z,-143.11
2022-11-27T02:39:46.322Z,-143.11
2022-11-27T02:42:19.773Z,-143.11
2022-11-27T02:44:51.933Z,-143.11
2022-11-27T02:47:20.575Z,-143.11
2022-11-27T02:49:50.582Z,-143.11
2022-11-27T02:52:19.838Z,-143.11
2022-11-27T02:54:49.843Z,-143.11
2022-11-27T02:57:19.535Z,-143.11
2022-11-27T02:59:49.663Z,-143.11
2022-11-27T03:02:20.790Z,-143.11
2022-11-27T03:04:50.954Z,-143.11
2022-11-27T03:07:23.978Z,-143.11
2022-11-27T03:09:54.972Z,-143.11
2022-11-27T03:12:23.045Z,-143.11
2022-11-27T03:14:52.533Z,-143.11
2022-11-27T03:17:32.133Z,-143.11
2022-11-27T03:20:02.120Z,-143.11
2022-11-27T03:22:31.643Z,-143.11
2022-11-27T03:24:59.896Z,-143.11
2022-11-27T03:27:30.741Z,-143.11
2022-11-27T03:30:01.919Z,-143.11
2022-11-27T03:32:31.417Z,-143.11
2022-11-27T03:34:59.518Z,-143.11
2022-11-27T03:37:27.945Z,-143.11
2022-11-27T03:39:56.125Z,-143.11
2022-11-27T03:42:26.087Z,-143.11
2022-11-27T03:44:56.052Z,-143.11
2022-11-27T03:47:36.828Z,-143.11
2022-11-27T03:50:10.377Z,-143.11
2022-11-27T03:52:45.172Z,-143.11
2022-11-27T03:55:16.511Z,-143.11
2022-11-27T03:57:49.707Z,-143.11
2022-11-27T04:00:18.164Z,-143.11
2022-11-27T04:02:51.089Z,-143.11
2022-11-27T04:05:19.439Z,-143.11
2022-11-27T04:07:47.526Z,-143.11
2022-11-27T04:10:15.864Z,-143.11
2022-11-27T04:12:43.948Z,-143.11
2022-11-27T04:15:12.583Z,-143.11
2022-11-27T04:17:40.797Z,-143.11
2022-11-27T04:20:11.850Z,-143.11
2022-11-27T04:22:39.923Z,-143.11
2022-11-27T04:25:10.857Z,-143.11
2022-11-27T04:27:38.896Z,-143.11
2022-11-27T04:30:07.596Z,-143.11
2022-11-27T04:32:35.672Z,-143.11
2022-11-27T04:35:03.761Z,-143.11
2022-11-27T04:37:33.271Z,-143.11
2022-11-27T04:40:01.359Z,-143.11
2022-11-27T04:42:29.472Z,-143.11
2022-11-27T04:44:57.486Z,-143.11
2022-11-27T04:47:25.525Z,-143.11
2022-11-27T04:49:53.639Z,-143.11
2022-11-27T04:52:21.716Z,-143.11
2022-11-27T04:54:55.368Z,-143.11
2022-11-27T04:57:26.636Z,-143.11
2022-11-27T04:59:54.646Z,-143.11
2022-11-27T05:02:22.820Z,-143.11
2022-11-27T05:04:50.911Z,-143.11
2022-11-27T05:07:18.997Z,-143.11
2022-11-27T05:09:51.447Z,-143.11
2022-11-27T05:12:19.619Z,-143.11
2022-11-27T05:14:47.705Z,-143.11
2022-11-27T05:17:15.869Z,-143.11
2022-11-27T05:19:43.969Z,-143.11
2022-11-27T05:22:12.041Z,-143.11
2022-11-27T05:24:40.351Z,-143.11
2022-11-27T05:27:10.310Z,-143.11
2022-11-27T05:29:39.867Z,-143.11
2022-11-27T05:32:07.880Z,-143.11
2022-11-27T05:34:35.937Z,-143.11
2022-11-27T05:37:03.968Z,-143.11
2022-11-27T05:39:32.021Z,-143.11
2022-11-27T05:42:00.112Z,-143.11
2022-11-27T05:44:29.567Z,-143.11
2022-11-27T05:46:57.831Z,-143.11
2022-11-27T05:49:25.904Z,-143.11
2022-11-27T05:51:53.950Z,-143.11
2022-11-27T05:54:22.000Z,-143.11
2022-11-27T05:56:50.048Z,-143.11
2022-11-27T05:59:18.149Z,-143.11
2022-11-27T06:01:49.293Z,-143.11
2022-11-27T06:04:17.522Z,-143.11
2022-11-27T06:06:45.551Z,-143.11
2022-11-27T06:09:13.830Z,-143.11
2022-11-27T06:11:42.460Z,-143.11
2022-11-27T06:14:10.875Z,-143.11
2022-11-27T06:16:39.019Z,-143.11
2022-11-27T06:19:08.883Z,-143.11
2022-11-27T06:21:36.978Z,-143.11
2022-11-27T06:24:05.141Z,-143.11
2022-11-27T06:26:35.569Z,-143.11
2022-11-27T06:29:03.644Z,-143.11
2022-11-27T06:31:32.438Z,-143.11
2022-11-27T06:34:01.148Z,-143.11
2022-11-27T06:36:32.359Z,-143.11
2022-11-27T06:39:00.541Z,-143.11
2022-11-27T06:41:28.605Z,-0.50
2022-11-27T06:43:58.334Z,-0.42
2022-11-27T06:46:26.868Z,-0.48
2022-11-27T06:48:55.368Z,-143.11
2022-11-27T06:51:25.316Z,-95.12
2022-11-27T06:53:54.889Z,-143.11
2022-11-27T06:56:23.871Z,-143.11
2022-11-27T06:58:52.504Z,-143.11
2022-11-27T07:01:20.993Z,0.61
2022-11-27T07:03:49.084Z,0.61
2022-11-27T07:06:19.532Z,-143.11
2022-11-27T07:08:47.913Z,0.75
2022-11-27T07:11:18.274Z,0.54
2022-11-27T07:13:46.653Z,0.35
2022-11-27T07:16:14.819Z,0.35
2022-11-27T07:18:44.252Z,-143.11
2022-11-27T07:21:13.213Z,-143.11
2022-11-27T07:23:41.441Z,-143.11
2022-11-27T07:26:10.823Z,0.35
2022-11-27T07:28:43.708Z,1.73
2022-11-27T07:31:12.472Z,1.72
2022-11-27T07:33:40.777Z,-143.11
2022-11-27T07:36:10.015Z,1.72
2022-11-27T07:38:38.075Z,2.46
2022-11-27T07:41:06.693Z,-143.11
2022-11-27T07:43:35.750Z,-143.11
2022-11-27T07:46:05.785Z,-143.11
2022-11-27T07:48:33.944Z,-143.11
2022-11-27T07:51:02.001Z,2.46
2022-11-27T07:53:30.101Z,2.46
2022-11-27T07:56:00.734Z,2.20
2022-11-27T07:58:28.818Z,2.62
2022-11-27T08:00:57.131Z,2.53
2022-11-27T08:03:26.785Z,2.51
2022-11-27T08:05:57.340Z,2.66
2022-11-27T08:08:25.504Z,3.01
2022-11-27T08:10:53.507Z,2.46
2022-11-27T08:13:21.602Z,2.43
2022-11-27T08:15:49.749Z,2.96
2022-11-27T08:18:17.918Z,3.03
2022-11-27T08:20:47.407Z,3.58
2022-11-27T08:23:15.505Z,3.58
2022-11-27T08:25:43.607Z,3.65
2022-11-27T08:28:11.650Z,3.16
2022-11-27T08:30:41.789Z,3.43
2022-11-27T08:33:10.406Z,3.39
2022-11-27T08:35:38.541Z,3.49
2022-11-27T08:38:10.484Z,3.80
2022-11-27T08:40:38.541Z,4.21
2022-11-27T08:43:06.607Z,4.35
2022-11-27T08:45:34.758Z,3.96
2022-11-27T08:48:02.934Z,3.68
2022-11-27T08:50:31.391Z,3.69
2022-11-27T08:52:59.542Z,3.91
2022-11-27T08:55:28.991Z,3.63
2022-11-27T08:57:56.987Z,3.64
2022-11-27T09:00:28.172Z,-143.11
2022-11-27T09:02:56.827Z,-143.11
2022-11-27T09:05:24.974Z,3.41
2022-11-27T09:07:53.291Z,3.41
2022-11-27T09:10:24.243Z,-143.11
2022-11-27T09:12:56.138Z,-143.11
2022-11-27T09:15:24.327Z,-143.11
2022-11-27T09:17:52.352Z,-143.11
2022-11-27T09:20:20.546Z,-143.11
2022-11-27T09:22:48.607Z,-143.11
2022-11-27T09:25:17.046Z,-143.11
2022-11-27T09:27:45.049Z,-143.11
2022-11-27T09:30:15.039Z,-143.11
2022-11-27T09:32:43.145Z,-143.11
2022-11-27T09:35:11.320Z,-143.11
2022-11-27T09:37:39.465Z,-143.11
2022-11-27T09:40:08.147Z,-143.11
2022-11-27T09:42:40.994Z,-143.11
2022-11-27T09:45:12.262Z,-143.11
2022-11-27T09:47:43.281Z,-143.11
2022-11-27T09:50:14.155Z,-143.11
2022-11-27T09:52:43.954Z,-143.11
2022-11-27T09:55:15.637Z,-143.11
2022-11-27T09:57:47.446Z,-143.11
2022-11-27T10:00:17.140Z,-143.11
2022-11-27T10:02:48.137Z,-143.11
2022-11-27T10:05:19.942Z,-143.11
2022-11-27T10:08:06.299Z,-143.11
2022-11-27T10:10:40.788Z,-143.11
2022-11-27T10:13:15.918Z,-143.11
2022-11-27T10:15:49.461Z,-143.11
2022-11-27T10:18:24.885Z,-143.11
2022-11-27T10:20:55.340Z,-143.11
2022-11-27T10:23:28.489Z,-143.11
2022-11-27T10:26:00.011Z,-143.11
2022-11-27T10:28:36.509Z,-143.11
2022-11-27T10:31:07.436Z,-143.11
2022-11-27T10:33:39.435Z,-143.11
2022-11-27T10:36:11.659Z,-143.11
2022-11-27T10:38:42.464Z,-143.11
2022-11-27T10:41:28.431Z,-143.11
2022-11-27T10:44:04.790Z,-143.11
2022-11-27T10:46:35.163Z,-143.11
2022-11-27T10:49:06.766Z,-143.11
2022-11-27T10:51:38.074Z,-143.11
2022-11-27T10:54:08.306Z,-143.11
2022-11-27T10:56:42.607Z,-143.11
2022-11-27T10:59:14.398Z,-143.11
2022-11-27T11:01:43.803Z,-143.11
2022-11-27T11:04:36.557Z,-143.11
2022-11-27T11:07:03.028Z,-143.11
2022-11-27T11:09:31.983Z,-143.11
2022-11-27T11:12:07.498Z,-143.11
2022-11-27T11:14:35.642Z,-143.11
2022-11-27T11:17:16.036Z,-143.11
2022-11-27T11:19:46.494Z,-143.11
2022-11-27T11:22:15.711Z,-143.11
2022-11-27T11:24:46.921Z,-143.11
2022-11-27T11:27:15.938Z,-143.11
2022-11-27T11:29:48.423Z,-143.11
2022-11-27T11:32:22.381Z,-143.11
2022-11-27T11:34:59.156Z,-143.11
2022-11-27T11:37:29.825Z,-143.11
2022-11-27T11:40:01.247Z,-143.11
2022-11-27T11:42:30.406Z,-143.11
2022-11-27T11:45:03.176Z,-143.11
2022-11-27T11:47:33.793Z,-143.11
2022-11-27T11:50:03.231Z,-143.11
2022-11-27T11:52:37.340Z,-143.11
2022-11-27T11:55:11.780Z,-143.11
2022-11-27T11:57:49.623Z,-143.11
2022-11-27T12:00:18.754Z,-143.11
2022-11-27T12:02:57.319Z,-143.11
2022-11-27T12:05:33.401Z,-143.11
2022-11-27T12:08:15.790Z,-143.11
2022-11-27T12:10:50.078Z,-143.11
2022-11-27T12:13:27.863Z,-143.11
2022-11-27T12:16:04.645Z,-143.11
2022-11-27T12:18:38.495Z,-143.11
2022-11-27T12:21:17.423Z,-143.11
2022-11-27T12:23:54.664Z,-143.11
2022-11-27T12:26:27.838Z,-143.11
2022-11-27T12:29:04.218Z,-143.11
2022-11-27T12:31:37.646Z,-143.11
2022-11-27T12:34:08.326Z,-143.11
2022-11-27T12:36:49.982Z,-143.11
2022-11-27T12:39:25.564Z,-143.11
2022-11-27T12:42:00.261Z,-143.11
2022-11-27T12:44:34.838Z,-143.11
2022-11-27T12:47:05.850Z,-143.11
2022-11-27T12:49:39.005Z,-143.11
2022-11-27T12:52:11.655Z,-143.11
2022-11-27T12:54:43.767Z,-143.11
2022-11-27T12:57:14.995Z,-143.11
2022-11-27T12:59:46.152Z,-143.11
2022-11-27T13:02:23.693Z,-143.11
2022-11-27T13:04:56.195Z,-143.11
2022-11-27T13:07:27.847Z,-143.11
2022-11-27T13:10:00.137Z,-143.11
2022-11-27T13:12:31.011Z,-143.11
2022-11-27T13:15:01.740Z,-143.11
2022-11-27T13:17:34.583Z,-143.11
2022-11-27T13:20:04.029Z,-143.11
2022-11-27T13:22:37.448Z,-143.11
2022-11-27T13:25:06.091Z,-143.11
2022-11-27T13:27:36.390Z,-143.11
2022-11-27T13:30:06.285Z,-143.11
2022-11-27T13:32:39.170Z,-143.11
2022-11-27T13:35:09.285Z,-143.11
2022-11-27T13:37:40.859Z,-143.11
2022-11-27T13:40:19.555Z,-143.11
2022-11-27T13:42:50.348Z,-143.11
2022-11-27T13:45:21.266Z,-143.11
2022-11-27T13:47:50.557Z,-143.11
2022-11-27T13:50:20.379Z,-143.11
2022-11-27T13:52:57.182Z,-143.11
2022-11-27T13:55:27.087Z,-143.11
2022-11-27T13:57:55.892Z,-143.11
2022-11-27T14:00:33.026Z,-143.11
2022-11-27T14:03:01.381Z,-143.11
2022-11-27T14:05:37.329Z,-143.11
2022-11-27T14:08:16.964Z,-143.11
2022-11-27T14:10:50.017Z,-143.11
2022-11-27T14:13:19.947Z,-143.11
2022-11-27T14:16:01.608Z,-143.11
2022-11-27T14:18:30.763Z,-143.11
2022-11-27T14:21:00.461Z,-143.11
2022-11-27T14:23:31.389Z,-143.11
2022-11-27T14:26:02.696Z,-143.11
2022-11-27T14:28:31.895Z,-143.11
2022-11-27T14:31:01.034Z,-143.11
2022-11-27T14:33:31.257Z,-143.11
2022-11-27T14:36:01.164Z,-143.11
2022-11-27T14:38:31.563Z,-143.11
2022-11-27T14:41:08.473Z,-143.11
2022-11-27T14:43:36.518Z,-143.11
2022-11-27T14:46:05.839Z,-143.11
2022-11-27T14:48:42.179Z,-143.11
2022-11-27T14:51:14.493Z,-143.11
2022-11-27T14:53:44.369Z,-143.11
2022-11-27T14:56:13.177Z,-143.11
2022-11-27T14:58:45.342Z,-143.11
2022-11-27T15:01:21.180Z,-143.11
2022-11-27T15:03:55.902Z,-143.11
2022-11-27T15:06:24.513Z,-143.11
2022-11-27T15:09:23.565Z,-143.11
2022-11-27T15:11:57.120Z,-143.11
2022-11-27T15:14:26.152Z,-143.11
2022-11-27T15:16:54.966Z,-143.11
2022-11-27T15:19:28.800Z,-143.11
2022-11-27T15:21:57.664Z,-143.11
2022-11-27T15:24:31.675Z,-143.11
2022-11-27T15:27:16.871Z,-143.11
2022-11-27T15:29:47.379Z,-143.11
2022-11-27T15:32:22.958Z,-143.11
2022-11-27T15:34:51.798Z,-143.11
2022-11-27T15:37:22.888Z,-143.11
2022-11-27T15:39:53.834Z,-143.11
2022-11-27T15:42:22.390Z,-143.11
2022-11-27T15:44:53.802Z,-143.11
2022-11-27T15:47:23.356Z,-143.11
2022-11-27T15:49:51.660Z,-143.11
2022-11-27T15:52:20.024Z,-143.11
2022-11-27T15:54:48.125Z,-143.11
2022-11-27T15:57:17.552Z,-143.11
2022-11-27T15:59:45.696Z,-143.11
2022-11-27T16:02:17.746Z,-143.11
2022-11-27T16:04:46.093Z,-143.11
2022-11-27T16:07:14.187Z,-143.11
2022-11-27T16:09:42.305Z,-143.11
2022-11-27T16:12:10.477Z,-143.11
2022-11-27T16:14:40.361Z,-143.11
2022-11-27T16:17:08.845Z,-143.11
2022-11-27T16:19:37.093Z,-143.11
2022-11-27T16:22:05.194Z,-143.11
2022-11-27T16:24:33.215Z,-143.11
2022-11-27T16:27:03.434Z,-143.11
2022-11-27T16:29:31.663Z,-143.11
2022-11-27T16:32:01.252Z,-143.11
2022-11-27T16:34:29.682Z,-143.11
2022-11-27T16:36:57.768Z,-143.11
2022-11-27T16:39:26.986Z,-143.11
2022-11-27T16:41:55.153Z,-143.11
2022-11-27T16:44:23.787Z,-143.11
2022-11-27T16:46:53.487Z,-143.11
2022-11-27T16:49:23.019Z,-143.11
2022-11-27T16:51:51.509Z,-143.11
2022-11-27T16:54:20.132Z,-143.11
2022-11-27T16:56:48.857Z,-143.11
2022-11-27T16:59:17.897Z,-143.11
2022-11-27T17:01:46.817Z,-143.11
2022-11-27T17:04:16.984Z,-143.11
2022-11-27T17:06:47.645Z,-143.11
2022-11-27T17:09:16.064Z,-143.11
2022-11-27T17:11:45.707Z,-143.11
2022-11-27T17:14:14.008Z,-143.11
2022-11-27T17:16:42.790Z,-143.11
2022-11-27T17:19:12.729Z,-143.11
2022-11-27T17:21:41.702Z,-143.11
2022-11-27T17:24:15.271Z,-143.11
2022-11-27T17:26:48.070Z,-143.11
2022-11-27T17:29:18.373Z,-143.11
2022-11-27T17:31:46.706Z,-143.11
2022-11-27T17:34:15.945Z,-143.11
2022-11-27T17:36:46.054Z,-143.11
2022-11-27T17:39:18.282Z,-143.11
2022-11-27T17:41:46.410Z,-143.11
2022-11-27T17:44:14.677Z,-143.11
2022-11-27T17:46:45.445Z,-143.11
2022-11-27T17:49:17.712Z,-143.11
2022-11-27T17:51:47.246Z,-143.11
2022-11-27T17:54:15.827Z,-143.11
2022-11-27T17:56:51.379Z,-143.11
2022-11-27T17:59:23.889Z,-143.11
2022-11-27T18:01:53.246Z,-143.11
2022-11-27T18:04:30.834Z,-143.11
2022-11-27T18:06:59.515Z,-143.11
2022-11-27T18:09:30.293Z,-143.11
2022-11-27T18:12:00.564Z,-143.11
2022-11-27T18:14:30.484Z,-143.11
2022-11-27T18:17:04.299Z,-143.11
2022-11-27T18:19:33.137Z,-143.11
2022-11-27T18:22:01.570Z,-143.11
2022-11-27T18:24:29.850Z,-143.11
2022-11-27T18:27:08.226Z,-143.11
2022-11-27T18:29:41.881Z,-143.11
2022-11-27T18:32:11.578Z,-143.11
2022-11-27T18:34:42.392Z,-143.11
2022-11-27T18:37:13.021Z,-143.11
2022-11-27T18:39:44.621Z,-143.11
2022-11-27T18:42:13.827Z,-143.11
2022-11-27T18:44:45.292Z,-143.11
2022-11-27T18:47:14.047Z,-143.11
2022-11-27T18:49:43.881Z,-143.11
2022-11-27T18:52:12.642Z,-143.11
2022-11-27T18:54:40.858Z,-143.11
2022-11-27T18:57:13.220Z,-143.11
2022-11-27T18:59:45.255Z,-143.11
2022-11-27T19:02:17.748Z,-143.11
2022-11-27T19:04:46.837Z,-143.11
2022-11-27T19:07:18.681Z,-143.11
2022-11-27T19:09:47.527Z,-143.11
2022-11-27T19:12:16.218Z,-143.11
2022-11-27T19:14:45.854Z,-143.11
2022-11-27T19:17:14.020Z,-143.11
2022-11-27T19:19:57.453Z,-143.11
2022-11-27T19:22:26.433Z,-143.11
2022-11-27T19:24:57.576Z,-143.11
2022-11-27T19:27:25.779Z,-143.11
2022-11-27T19:29:55.377Z,-143.11
2022-11-27T19:32:26.176Z,-143.11
2022-11-27T19:34:54.399Z,-143.11
2022-11-27T19:37:33.938Z,-143.11
2022-11-27T19:40:07.485Z,-143.11
2022-11-27T19:42:35.682Z,-143.11
2022-11-27T19:45:06.213Z,-143.11
2022-11-27T19:47:34.614Z,-143.11
2022-11-27T19:50:02.932Z,-143.11
2022-11-27T19:52:36.258Z,-143.11
2022-11-27T19:55:05.481Z,-143.11
2022-11-27T19:57:34.171Z,-143.11
2022-11-27T20:00:04.461Z,-143.11
2022-11-27T20:02:44.895Z,-143.11
2022-11-27T20:05:13.259Z,-143.11
2022-11-27T20:07:41.356Z,-143.11
2022-11-27T20:10:09.945Z,-143.11
2022-11-27T20:12:38.659Z,-143.11
2022-11-27T20:15:09.309Z,-143.11
2022-11-27T20:17:37.552Z,-143.11
2022-11-27T20:20:10.611Z,-143.11
2022-11-27T20:22:39.549Z,-143.11
2022-11-27T20:25:19.381Z,-143.11
2022-11-27T20:27:50.870Z,-143.11
2022-11-27T20:30:21.767Z,-143.11
2022-11-27T20:32:49.955Z,-143.11
2022-11-27T20:35:20.087Z,-143.11
2022-11-27T20:37:48.368Z,-143.11
2022-11-27T20:40:16.710Z,-143.11
2022-11-27T20:42:45.259Z,-143.11
2022-11-27T20:45:18.971Z,-143.11
2022-11-27T20:47:48.428Z,-143.11
2022-11-27T20:50:16.495Z,-143.11
2022-11-27T20:52:46.954Z,-143.11
2022-11-27T20:55:15.227Z,-143.11
2022-11-27T20:57:43.667Z,-143.11
2022-11-27T21:00:12.078Z,-143.11
2022-11-27T21:02:41.659Z,-143.11
2022-11-27T21:05:12.599Z,-143.11
2022-11-27T21:07:44.440Z,-143.11
2022-11-27T21:10:15.428Z,-143.11
2022-11-27T21:12:43.712Z,-143.11
2022-11-27T21:15:13.030Z,-143.11
2022-11-27T21:17:41.666Z,-143.11
2022-11-27T21:20:11.178Z,-143.11
2022-11-27T21:22:42.583Z,-143.11
2022-11-27T21:25:11.326Z,-143.11
2022-11-27T21:27:40.815Z,-143.11
2022-11-27T21:30:09.552Z,-143.11
2022-11-27T21:32:38.382Z,-143.11
2022-11-27T21:35:06.802Z,-143.11
2022-11-27T21:37:35.334Z,-143.11
2022-11-27T21:40:03.853Z,-143.11
2022-11-27T21:42:36.613Z,-143.11
2022-11-27T21:45:09.077Z,-143.11
2022-11-27T21:47:37.325Z,-143.11
2022-11-27T21:50:06.256Z,-143.11
2022-11-27T21:52:35.527Z,-143.11
2022-11-27T21:55:11.791Z,-143.11
2022-11-27T21:57:40.474Z,-143.11
2022-11-27T22:02:41.515Z,4.57
2022-11-27T22:05:10.197Z,4.55
2022-11-27T22:07:38.439Z,4.65
2022-11-27T22:10:08.396Z,4.57
2022-11-27T22:12:36.593Z,4.58
2022-11-27T22:15:04.971Z,4.54
2022-11-27T22:17:33.964Z,4.57
2022-11-27T22:20:03.375Z,4.62
2022-11-27T22:22:31.817Z,4.89
2022-11-27T22:25:00.359Z,4.80
2022-11-27T22:27:28.420Z,4.96
2022-11-27T22:29:56.620Z,4.65
2022-11-27T22:32:24.750Z,4.66
2022-11-27T22:34:52.847Z,4.82
2022-11-27T22:37:22.259Z,4.63
2022-11-27T22:39:50.306Z,4.67
2022-11-27T22:42:18.537Z,4.77
2022-11-27T22:44:46.558Z,4.67
2022-11-27T22:47:14.595Z,4.64
2022-11-27T22:49:42.812Z,4.73
2022-11-27T22:52:10.893Z,4.68
2022-11-27T22:54:41.136Z,4.53
2022-11-27T22:57:09.964Z,4.47
2022-11-27T22:59:38.144Z,4.47
2022-11-27T23:02:06.739Z,4.44
2022-11-27T23:04:35.068Z,4.28
2022-11-27T23:07:04.111Z,4.41
2022-11-27T23:09:32.418Z,4.42
2022-11-27T23:12:01.835Z,4.39
2022-11-27T23:14:30.059Z,4.60
2022-11-27T23:16:58.197Z,4.49
2022-11-27T23:19:26.334Z,4.49
2022-11-27T23:21:54.411Z,4.53
2022-11-27T23:24:22.387Z,4.56
2022-11-27T23:26:52.520Z,4.75
2022-11-27T23:29:23.984Z,4.61
2022-11-27T23:31:52.393Z,4.63
2022-11-27T23:34:20.422Z,4.68
2022-11-27T23:36:48.427Z,4.49
2022-11-27T23:39:16.429Z,4.42
2022-11-27T23:41:44.534Z,4.39
2022-11-27T23:44:12.614Z,4.40
2022-11-27T23:46:42.176Z,4.54
2022-11-27T23:49:10.222Z,4.62
2022-11-27T23:51:38.291Z,4.69
2022-11-27T23:54:08.357Z,5.06
2022-11-27T23:56:36.428Z,4.83
2022-11-27T23:59:04.631Z,5.05
